< < Back
Terminal Aerodrome Forecast


Current Version              Previous Versions:   1  2  3  4  5  6  7  8  9  

Terminal Aerodrome Forecast

016
FTUS42 KGSP 252335
TAFGSP
TAF
KGSP 252335Z 2600/2624 16005KT P6SM BKN060
     FM260600 18006KT P6SM VCTS OVC030CB
     FM261100 17005KT P6SM OVC009
     FM261500 18006KT P6SM VCSH BKN015 OVC030
     FM261700 19006KT P6SM VCTS BKN035CB PROB30 2619/2624 3SM TSRA
      OVC035CB=



Latest METAR

342
SAUS70 KWBC 260300 RRL
MTRGSP
METAR KGSP 260253Z 13006KT 10SM CLR 21/18 A3023 RMK AO2 SLP227 T02110178
50004


USA.gov is the U.S. government's official web portal to all federal, state and local government web resources and services.